createdAt,value
2018-12-07T00:00:31.853Z,27.36
2018-12-07T00:01:08.751Z,27.37
2018-12-07T00:01:46.528Z,27.37
2018-12-07T00:02:23.452Z,27.40
2018-12-07T00:03:01.215Z,27.41
2018-12-07T00:03:38.126Z,27.42
2018-12-07T00:04:14.913Z,27.43
2018-12-07T00:04:51.885Z,27.45
2018-12-07T00:05:28.645Z,27.46
2018-12-07T00:06:06.242Z,27.48
2018-12-07T00:06:45.368Z,27.49
2018-12-07T00:07:22.247Z,27.51
2018-12-07T00:08:02.117Z,27.53
2018-12-07T00:08:38.925Z,27.54
2018-12-07T00:09:15.736Z,27.57
2018-12-07T00:09:52.526Z,27.58
2018-12-07T00:10:29.507Z,27.60
2018-12-07T00:11:06.553Z,27.61
2018-12-07T00:11:44.237Z,27.62
2018-12-07T00:12:21.517Z,27.63
2018-12-07T00:12:58.470Z,27.65
2018-12-07T00:13:35.243Z,27.67
2018-12-07T00:14:13.274Z,27.68
2018-12-07T00:14:50.457Z,27.69
2018-12-07T00:15:27.302Z,27.72
2018-12-07T00:16:07.005Z,27.72
2018-12-07T00:16:45.989Z,27.72
2018-12-07T00:17:24.475Z,27.75
2018-12-07T00:18:01.267Z,27.78
2018-12-07T00:18:38.544Z,27.80
2018-12-07T00:19:15.299Z,27.81
2018-12-07T00:19:52.095Z,27.83
2018-12-07T00:20:29.477Z,27.83
2018-12-07T00:21:06.304Z,27.83
2018-12-07T00:21:43.279Z,27.83
2018-12-07T00:22:20.087Z,27.87
2018-12-07T00:22:56.994Z,27.88
2018-12-07T00:23:33.849Z,27.89
2018-12-07T00:24:10.683Z,27.90
2018-12-07T00:24:47.540Z,27.90
2018-12-07T00:25:24.887Z,27.92
2018-12-07T00:26:02.841Z,27.92
2018-12-07T00:26:39.730Z,27.92
2018-12-07T00:27:16.616Z,27.93
2018-12-07T00:27:53.581Z,27.95
2018-12-07T00:28:30.377Z,27.95
2018-12-07T00:29:07.349Z,27.96
2018-12-07T00:29:44.313Z,27.97
2018-12-07T00:30:22.073Z,27.99
2018-12-07T00:30:58.980Z,28.00
2018-12-07T00:31:35.891Z,28.00
2018-12-07T00:32:12.697Z,28.03
2018-12-07T00:32:49.550Z,28.04
2018-12-07T00:33:26.465Z,28.05
2018-12-07T00:34:03.313Z,28.08
2018-12-07T00:34:40.173Z,28.09
2018-12-07T00:35:17.066Z,28.10
2018-12-07T00:35:53.929Z,28.11
2018-12-07T00:36:30.819Z,28.12
2018-12-07T00:37:07.803Z,28.13
2018-12-07T00:37:44.632Z,28.14
2018-12-07T00:38:21.410Z,28.16
2018-12-07T00:38:58.161Z,28.15
2018-12-07T00:39:35.241Z,28.17
2018-12-07T00:40:12.209Z,28.17
2018-12-07T00:40:49.124Z,28.18
2018-12-07T00:41:25.906Z,28.20
2018-12-07T00:42:02.793Z,28.19
2018-12-07T00:42:39.666Z,28.18
2018-12-07T00:43:16.454Z,28.19
2018-12-07T00:43:53.385Z,28.21
2018-12-07T00:44:31.218Z,28.19
2018-12-07T00:45:08.456Z,28.20
2018-12-07T00:45:45.300Z,28.20
2018-12-07T00:46:22.197Z,28.21
2018-12-07T00:46:59.324Z,28.22
2018-12-07T00:47:36.197Z,28.23
2018-12-07T00:48:14.787Z,28.24
2018-12-07T00:48:51.607Z,28.25
2018-12-07T00:49:28.483Z,28.25
2018-12-07T00:50:05.399Z,28.26
2018-12-07T00:50:42.213Z,28.25
2018-12-07T00:51:21.261Z,28.26
2018-12-07T00:51:58.127Z,28.27
2018-12-07T00:52:35.004Z,28.27
2018-12-07T00:53:11.766Z,28.28
2018-12-07T00:53:48.662Z,28.29
2018-12-07T00:54:25.585Z,28.29
2018-12-07T00:55:02.523Z,28.30
2018-12-07T00:55:44.327Z,28.29
2018-12-07T00:56:21.093Z,28.31
2018-12-07T00:56:57.983Z,28.31
2018-12-07T00:57:34.859Z,28.33
2018-12-07T00:58:11.714Z,28.36
2018-12-07T00:59:02.636Z,28.38
2018-12-07T00:59:39.573Z,28.41
2018-12-07T01:00:16.452Z,28.44
2018-12-07T01:00:53.349Z,28.45
2018-12-07T01:01:30.330Z,28.48
2018-12-07T01:02:07.242Z,28.49
2018-12-07T01:02:44.097Z,28.51
2018-12-07T01:03:20.994Z,28.53
2018-12-07T01:03:57.839Z,28.55
2018-12-07T01:04:35.783Z,28.57
2018-12-07T01:05:12.558Z,28.59
2018-12-07T01:05:50.079Z,28.61
2018-12-07T01:06:26.933Z,28.63
2018-12-07T01:07:03.881Z,28.66
2018-12-07T01:07:40.834Z,28.69
2018-12-07T01:08:17.715Z,28.71
2018-12-07T01:08:54.520Z,28.76
2018-12-07T01:09:31.473Z,28.79
2018-12-07T01:10:08.724Z,28.81
2018-12-07T01:10:45.540Z,28.83
2018-12-07T01:11:22.567Z,28.84
2018-12-07T01:11:59.429Z,28.86
2018-12-07T01:12:36.233Z,28.88
2018-12-07T01:13:13.080Z,28.89
2018-12-07T01:13:49.891Z,28.92
2018-12-07T01:14:26.740Z,28.94
2018-12-07T01:15:03.766Z,28.97
2018-12-07T01:15:40.626Z,29.01
2018-12-07T01:16:17.463Z,29.04
2018-12-07T01:16:55.480Z,29.06
2018-12-07T01:17:32.411Z,29.09
2018-12-07T01:18:09.325Z,29.12
2018-12-07T01:18:46.256Z,29.17
2018-12-07T01:19:23.155Z,29.19
2018-12-07T01:20:00.140Z,29.22
2018-12-07T01:20:37.123Z,29.25
2018-12-07T01:21:14.052Z,29.28
2018-12-07T01:21:50.895Z,29.30
2018-12-07T01:22:28.343Z,29.34
2018-12-07T01:23:05.338Z,29.36
2018-12-07T01:23:42.208Z,29.39
2018-12-07T01:24:19.166Z,29.41
2018-12-07T01:24:56.057Z,29.43
2018-12-07T01:25:32.996Z,29.46
2018-12-07T01:26:09.911Z,29.46
2018-12-07T01:26:46.843Z,29.47
2018-12-07T01:27:23.859Z,29.48
2018-12-07T01:28:00.678Z,29.50
2018-12-07T01:28:37.601Z,29.51
2018-12-07T01:29:14.458Z,29.53
2018-12-07T01:29:51.311Z,29.53
2018-12-07T01:30:28.211Z,29.51
2018-12-07T01:31:05.153Z,29.53
2018-12-07T01:31:42.038Z,29.56
2018-12-07T01:32:18.831Z,29.60
2018-12-07T01:32:55.576Z,29.65
2018-12-07T01:33:32.356Z,29.70
2018-12-07T01:34:09.288Z,29.74
2018-12-07T01:34:46.206Z,29.74
2018-12-07T01:35:22.973Z,29.73
2018-12-07T01:35:59.728Z,29.71
2018-12-07T01:36:36.789Z,29.72
2018-12-07T01:37:13.606Z,29.70
2018-12-07T01:37:50.442Z,29.78
2018-12-07T01:38:27.303Z,29.76
2018-12-07T01:39:04.957Z,29.74
2018-12-07T01:39:41.923Z,29.76
2018-12-07T01:40:19.920Z,29.88
2018-12-07T01:40:56.918Z,29.97
2018-12-07T01:41:33.703Z,30.05
2018-12-07T01:42:10.499Z,30.14
2018-12-07T01:42:47.378Z,30.20
2018-12-07T01:43:24.249Z,30.23
2018-12-07T01:44:01.139Z,30.22
2018-12-07T01:44:38.021Z,30.28
2018-12-07T01:45:14.908Z,30.36
2018-12-07T01:45:51.887Z,30.40
2018-12-07T01:46:28.620Z,30.48
2018-12-07T01:47:05.554Z,30.48
2018-12-07T01:47:47.440Z,30.51
2018-12-07T01:48:24.472Z,30.53
2018-12-07T01:49:01.386Z,30.55
2018-12-07T01:49:38.321Z,30.56
2018-12-07T01:50:15.350Z,30.54
2018-12-07T01:50:52.140Z,30.58
2018-12-07T01:51:28.957Z,30.60
2018-12-07T01:52:05.736Z,30.64
2018-12-07T01:52:42.630Z,30.60
2018-12-07T01:53:19.538Z,30.58
2018-12-07T01:53:56.279Z,30.48
2018-12-07T01:54:33.232Z,30.46
2018-12-07T01:55:10.111Z,30.40
2018-12-07T01:55:47.075Z,30.47
2018-12-07T01:56:24.843Z,30.50
2018-12-07T01:57:01.770Z,30.52
2018-12-07T01:57:38.617Z,30.60
2018-12-07T01:58:15.473Z,30.64
2018-12-07T01:58:52.338Z,30.66
2018-12-07T02:00:35.120Z,30.69
2018-12-07T02:01:12.032Z,30.77
2018-12-07T02:01:48.964Z,30.82
2018-12-07T02:02:26.446Z,30.85
2018-12-07T02:03:04.174Z,30.87
2018-12-07T02:03:40.974Z,30.89
2018-12-07T02:04:17.848Z,30.91
2018-12-07T02:04:54.672Z,30.91
2018-12-07T02:05:31.433Z,30.93
2018-12-07T02:06:08.336Z,30.96
2018-12-07T02:06:45.225Z,30.99
2018-12-07T02:07:31.294Z,31.01
2018-12-07T02:08:08.256Z,31.03
2018-12-07T02:08:46.040Z,31.07
2018-12-07T02:09:23.869Z,31.07
2018-12-07T02:10:00.844Z,31.10
2018-12-07T02:10:37.723Z,30.99
2018-12-07T02:11:14.713Z,31.04
2018-12-07T02:11:51.602Z,31.02
2018-12-07T02:12:29.455Z,31.04
2018-12-07T02:13:06.167Z,31.05
2018-12-07T02:13:43.107Z,31.01
2018-12-07T02:14:19.954Z,31.02
2018-12-07T02:14:56.844Z,31.02
2018-12-07T02:15:35.149Z,31.01
2018-12-07T02:16:12.078Z,31.04
2018-12-07T02:16:49.013Z,31.05
2018-12-07T02:17:25.933Z,31.09
2018-12-07T02:18:05.927Z,31.07
2018-12-07T02:18:42.733Z,31.10
2018-12-07T02:19:19.743Z,31.06
2018-12-07T02:19:56.581Z,31.11
2018-12-07T02:20:33.492Z,31.12
2018-12-07T02:21:10.497Z,31.09
2018-12-07T02:21:47.277Z,31.18
2018-12-07T02:22:25.041Z,31.19
2018-12-07T02:23:01.884Z,31.21
2018-12-07T02:23:38.819Z,31.23
2018-12-07T02:24:15.676Z,31.24
2018-12-07T02:24:55.456Z,31.25
2018-12-07T02:25:38.373Z,31.27
2018-12-07T02:26:15.178Z,31.27
2018-12-07T02:26:52.003Z,31.29
2018-12-07T02:27:31.075Z,31.28
2018-12-07T02:28:08.068Z,31.29
2018-12-07T02:28:44.921Z,31.31
2018-12-07T02:29:21.920Z,31.32
2018-12-07T02:29:59.611Z,31.31
2018-12-07T02:30:36.362Z,31.31
2018-12-07T02:31:13.320Z,31.31
2018-12-07T02:31:50.132Z,31.30
2018-12-07T02:32:27.255Z,31.36
2018-12-07T02:33:04.155Z,31.39
2018-12-07T02:33:40.949Z,31.35
2018-12-07T02:34:18.958Z,31.32
2018-12-07T02:34:55.837Z,31.39
2018-12-07T02:35:32.880Z,31.42
2018-12-07T02:36:09.675Z,31.44
2018-12-07T02:36:47.634Z,31.45
2018-12-07T02:37:24.696Z,31.45
2018-12-07T02:38:01.530Z,31.48
2018-12-07T02:38:39.521Z,31.50
2018-12-07T02:39:17.305Z,31.52
2018-12-07T02:39:54.089Z,31.52
2018-12-07T02:40:31.037Z,31.52
2018-12-07T02:41:08.721Z,31.55
2018-12-07T02:41:45.449Z,31.54
2018-12-07T02:42:22.333Z,31.54
2018-12-07T02:42:59.164Z,31.57
2018-12-07T02:43:37.093Z,31.59
2018-12-07T02:44:13.902Z,31.57
2018-12-07T02:44:50.643Z,31.58
2018-12-07T02:45:27.541Z,31.58
2018-12-07T02:46:04.406Z,31.62
2018-12-07T02:46:41.457Z,31.61
2018-12-07T02:47:18.308Z,31.58
2018-12-07T02:47:55.179Z,31.59
2018-12-07T02:48:31.941Z,31.60
2018-12-07T02:49:08.844Z,31.64
2018-12-07T02:49:45.719Z,31.65
2018-12-07T02:50:22.602Z,31.65
2018-12-07T02:50:59.532Z,31.69
2018-12-07T02:51:36.358Z,31.69
2018-12-07T02:52:14.158Z,31.69
2018-12-07T02:52:51.108Z,31.70
2018-12-07T02:53:28.062Z,31.74
2018-12-07T02:54:05.810Z,31.76
2018-12-07T02:54:42.699Z,31.78
2018-12-07T02:55:19.568Z,31.81
2018-12-07T02:55:56.468Z,31.80
2018-12-07T02:56:35.189Z,31.82
2018-12-07T02:57:12.024Z,31.81
2018-12-07T02:57:48.923Z,31.82
2018-12-07T02:58:25.821Z,31.79
2018-12-07T02:59:02.724Z,31.82
2018-12-07T02:59:45.770Z,31.83
2018-12-07T03:00:22.696Z,31.86
2018-12-07T03:00:59.710Z,31.90
2018-12-07T03:01:36.526Z,31.94
2018-12-07T03:02:15.291Z,31.96
2018-12-07T03:02:52.086Z,31.98
2018-12-07T03:03:29.024Z,32.01
2018-12-07T03:04:07.056Z,31.99
2018-12-07T03:04:43.888Z,32.02
2018-12-07T03:05:20.979Z,32.03
2018-12-07T03:05:57.841Z,32.05
2018-12-07T03:06:34.761Z,32.05
2018-12-07T03:07:11.730Z,32.05
2018-12-07T03:07:48.651Z,32.05
2018-12-07T03:08:26.485Z,32.07
2018-12-07T03:09:03.425Z,32.06
2018-12-07T03:09:42.629Z,32.12
2018-12-07T03:10:19.562Z,32.08
2018-12-07T03:10:56.324Z,32.09
2018-12-07T03:11:33.267Z,32.10
2018-12-07T03:12:10.159Z,32.13
2018-12-07T03:12:47.063Z,32.16
2018-12-07T03:13:23.945Z,32.16
2018-12-07T03:14:01.124Z,32.17
2018-12-07T03:14:38.074Z,32.18
2018-12-07T03:15:15.396Z,32.21
2018-12-07T03:15:52.300Z,32.18
2018-12-07T03:16:29.223Z,32.17
2018-12-07T03:17:06.569Z,32.18
2018-12-07T03:17:44.625Z,32.18
2018-12-07T03:18:32.191Z,32.20
2018-12-07T03:19:08.998Z,32.20
2018-12-07T03:19:45.913Z,32.19
2018-12-07T03:20:22.902Z,32.21
2018-12-07T03:20:59.967Z,32.19
2018-12-07T03:21:36.854Z,32.21
2018-12-07T03:22:13.794Z,32.24
2018-12-07T03:22:50.717Z,32.26
2018-12-07T03:23:27.698Z,32.28
2018-12-07T03:24:04.501Z,32.30
2018-12-07T03:24:41.406Z,32.32
2018-12-07T03:25:18.318Z,32.34
2018-12-07T03:25:55.976Z,32.35
2018-12-07T03:26:32.859Z,32.38
2018-12-07T03:27:09.889Z,32.39
2018-12-07T03:27:46.817Z,32.41
2018-12-07T03:28:24.569Z,32.41
2018-12-07T03:29:01.508Z,32.46
2018-12-07T03:29:38.413Z,32.49
2018-12-07T03:30:16.125Z,32.52
2018-12-07T03:30:54.749Z,32.55
2018-12-07T03:31:31.761Z,32.56
2018-12-07T03:32:09.872Z,32.56
2018-12-07T03:32:46.710Z,32.54
2018-12-07T03:33:23.766Z,32.54
2018-12-07T03:34:02.283Z,32.55
2018-12-07T03:34:39.410Z,32.56
2018-12-07T03:35:16.216Z,32.57
2018-12-07T03:35:53.092Z,32.59
2018-12-07T03:36:29.945Z,32.60
2018-12-07T03:37:06.836Z,32.58
2018-12-07T03:37:43.614Z,32.59
2018-12-07T03:38:20.432Z,32.59
2018-12-07T03:39:00.083Z,32.61
2018-12-07T03:39:36.921Z,32.61
2018-12-07T03:40:13.759Z,32.65
2018-12-07T03:40:50.473Z,32.65
2018-12-07T03:41:27.395Z,32.66
2018-12-07T03:42:04.374Z,32.67
2018-12-07T03:42:41.189Z,32.65
2018-12-07T03:43:18.132Z,32.67
2018-12-07T03:43:55.181Z,32.70
2018-12-07T03:44:32.102Z,32.72
2018-12-07T03:45:09.852Z,32.71
2018-12-07T03:45:46.798Z,32.73
2018-12-07T03:46:23.632Z,32.76
2018-12-07T03:47:00.630Z,32.75
2018-12-07T03:47:37.589Z,32.78
2018-12-07T03:48:14.397Z,32.77
2018-12-07T03:48:51.281Z,32.75
2018-12-07T03:49:28.991Z,32.72
2018-12-07T03:50:05.972Z,32.70
2018-12-07T03:50:42.779Z,32.66
2018-12-07T03:51:19.654Z,32.64
2018-12-07T03:51:57.406Z,32.65
2018-12-07T03:52:34.444Z,32.59
2018-12-07T03:53:11.412Z,32.49
2018-12-07T03:53:48.357Z,32.49
2018-12-07T03:54:25.178Z,32.36
2018-12-07T03:55:02.083Z,32.34
2018-12-07T03:55:38.962Z,32.39
2018-12-07T03:56:15.779Z,32.43
2018-12-07T03:56:53.629Z,32.43
2018-12-07T03:57:30.703Z,32.50
2018-12-07T03:58:07.502Z,32.54
2018-12-07T03:58:44.452Z,32.56
2018-12-07T03:59:21.243Z,32.62
2018-12-07T03:59:58.140Z,32.59
2018-12-07T04:00:34.888Z,32.58
2018-12-07T04:01:12.728Z,32.61
2018-12-07T04:01:49.796Z,32.64
2018-12-07T04:02:26.719Z,32.67
2018-12-07T04:03:03.755Z,32.69
2018-12-07T04:03:41.888Z,32.69
2018-12-07T04:04:19.345Z,32.67
2018-12-07T04:04:56.148Z,32.69
2018-12-07T04:05:33.157Z,32.72
2018-12-07T04:06:10.480Z,32.74
2018-12-07T04:06:47.334Z,32.76
2018-12-07T04:07:24.301Z,32.80
2018-12-07T04:08:03.896Z,32.82
2018-12-07T04:08:40.977Z,32.86
2018-12-07T04:09:18.804Z,32.88
2018-12-07T04:09:55.838Z,32.91
2018-12-07T04:10:32.896Z,32.92
2018-12-07T04:11:09.984Z,32.91
2018-12-07T04:11:46.884Z,32.91
2018-12-07T04:12:23.922Z,32.94
2018-12-07T04:13:00.824Z,32.96
2018-12-07T04:13:38.024Z,32.97
2018-12-07T04:14:14.806Z,32.99
2018-12-07T04:14:51.612Z,33.00
2018-12-07T04:15:28.612Z,33.04
2018-12-07T04:16:05.536Z,33.09
2018-12-07T04:16:42.657Z,33.11
2018-12-07T04:17:19.550Z,33.14
2018-12-07T04:17:56.358Z,33.16
2018-12-07T04:18:33.529Z,33.15
2018-12-07T04:19:10.406Z,33.15
2018-12-07T04:19:47.819Z,33.17
2018-12-07T04:20:24.773Z,33.19
2018-12-07T04:21:01.686Z,33.20
2018-12-07T04:21:38.542Z,33.25
2018-12-07T04:22:15.400Z,33.26
2018-12-07T04:22:52.360Z,33.27
2018-12-07T04:23:30.343Z,33.29
2018-12-07T04:24:07.265Z,33.30
2018-12-07T04:24:44.132Z,33.24
2018-12-07T04:25:20.974Z,33.24
2018-12-07T04:25:57.883Z,33.25
2018-12-07T04:26:35.865Z,33.24
2018-12-07T04:27:13.203Z,33.25
2018-12-07T04:27:50.529Z,33.25
2018-12-07T04:28:27.609Z,33.18
2018-12-07T04:29:04.625Z,33.17
2018-12-07T04:29:41.476Z,33.18
2018-12-07T04:30:28.706Z,33.16
2018-12-07T04:31:06.136Z,33.12
2018-12-07T04:31:42.994Z,33.11
2018-12-07T04:32:19.837Z,33.12
2018-12-07T04:32:56.700Z,33.13
2018-12-07T04:33:33.982Z,33.13
2018-12-07T04:34:10.895Z,33.11
2018-12-07T04:34:47.309Z,33.11
2018-12-07T04:35:24.253Z,33.11
2018-12-07T04:36:07.338Z,33.11
2018-12-07T04:36:40.154Z,33.13
2018-12-07T04:37:17.035Z,33.13
2018-12-07T04:37:54.001Z,33.16
2018-12-07T04:38:30.754Z,33.16
2018-12-07T04:39:09.184Z,33.15
2018-12-07T04:39:46.110Z,33.19
2018-12-07T04:40:23.190Z,33.21
2018-12-07T04:41:00.085Z,33.26
2018-12-07T04:41:37.087Z,33.27
2018-12-07T04:42:13.899Z,33.27
2018-12-07T04:42:51.142Z,33.30
2018-12-07T04:43:27.991Z,33.30
2018-12-07T04:44:04.924Z,33.29
2018-12-07T04:44:41.861Z,33.33
2018-12-07T04:45:18.755Z,33.33
2018-12-07T04:45:56.514Z,33.30
2018-12-07T04:46:33.309Z,33.30
2018-12-07T04:47:10.156Z,33.31
2018-12-07T04:47:47.057Z,33.30
2018-12-07T04:48:23.943Z,33.32
2018-12-07T04:49:00.746Z,33.34
2018-12-07T04:49:38.834Z,33.36
2018-12-07T04:50:15.791Z,33.34
2018-12-07T04:50:53.179Z,33.29
2018-12-07T04:51:30.147Z,33.27
2018-12-07T04:52:07.505Z,33.27
2018-12-07T04:52:44.376Z,33.25
2018-12-07T04:53:21.478Z,33.12
2018-12-07T04:53:58.446Z,33.09
2018-12-07T04:54:35.515Z,33.11
2018-12-07T04:55:12.500Z,33.10
2018-12-07T04:55:49.446Z,33.10
2018-12-07T04:56:26.306Z,33.13
2018-12-07T04:57:03.706Z,33.16
2018-12-07T04:57:41.134Z,33.18
2018-12-07T04:58:18.277Z,33.16
2018-12-07T04:58:55.261Z,33.19
2018-12-07T04:59:32.328Z,33.19
2018-12-07T05:00:10.173Z,33.22
2018-12-07T05:00:47.390Z,33.23
2018-12-07T05:01:24.203Z,33.23
2018-12-07T05:02:02.555Z,33.23
2018-12-07T05:02:39.468Z,33.20
2018-12-07T05:03:17.568Z,33.22
2018-12-07T05:03:54.481Z,33.18
2018-12-07T05:04:31.467Z,33.23
2018-12-07T05:05:08.828Z,33.14
2018-12-07T05:05:46.779Z,33.13
2018-12-07T05:06:24.359Z,33.16
2018-12-07T05:07:02.062Z,33.18
2018-12-07T05:07:39.458Z,33.22
2018-12-07T05:08:17.046Z,33.26
2018-12-07T05:08:53.910Z,33.23
2018-12-07T05:09:30.878Z,33.27
2018-12-07T05:10:08.455Z,33.29
2018-12-07T05:10:45.405Z,33.31
2018-12-07T05:11:22.611Z,33.29
2018-12-07T05:11:59.616Z,33.26
2018-12-07T05:12:36.636Z,33.24
2018-12-07T05:13:13.540Z,33.25
2018-12-07T05:13:50.298Z,33.27
2018-12-07T05:14:27.145Z,33.25
2018-12-07T05:15:04.142Z,33.23
2018-12-07T05:15:41.124Z,33.24
2018-12-07T05:16:18.069Z,33.26
2018-12-07T05:16:55.057Z,33.28
2018-12-07T05:17:32.569Z,33.27
2018-12-07T05:18:10.614Z,33.31
2018-12-07T05:18:47.533Z,33.32
2018-12-07T05:19:24.685Z,33.33
2018-12-07T05:20:01.741Z,33.34
2018-12-07T05:20:38.604Z,33.29
2018-12-07T05:21:16.042Z,33.27
2018-12-07T05:21:53.318Z,33.29
2018-12-07T05:22:30.976Z,33.28
2018-12-07T05:23:08.369Z,33.33
2018-12-07T05:23:45.874Z,33.35
2018-12-07T05:24:23.345Z,33.37
2018-12-07T05:25:01.304Z,33.34
2018-12-07T05:25:39.247Z,33.35
2018-12-07T05:26:16.201Z,33.36
2018-12-07T05:26:53.352Z,33.34
2018-12-07T05:27:30.106Z,33.34
2018-12-07T05:28:07.348Z,33.36
2018-12-07T05:28:44.343Z,33.35
2018-12-07T05:29:21.712Z,33.37
2018-12-07T05:29:58.557Z,33.37
2018-12-07T05:30:35.589Z,33.35
2018-12-07T05:31:12.843Z,33.35
2018-12-07T05:31:49.745Z,33.36
2018-12-07T05:32:26.553Z,33.36
2018-12-07T05:33:03.376Z,33.36
2018-12-07T05:33:40.212Z,33.36
2018-12-07T05:34:17.079Z,33.38
2018-12-07T05:34:53.937Z,33.37
2018-12-07T05:35:30.964Z,33.28
2018-12-07T05:36:07.980Z,33.29
2018-12-07T05:36:44.886Z,33.28
2018-12-07T05:37:21.752Z,33.31
2018-12-07T05:37:58.620Z,33.31
2018-12-07T05:38:35.589Z,33.30
2018-12-07T05:39:12.426Z,33.32
2018-12-07T05:39:49.341Z,33.34
2018-12-07T05:40:26.234Z,33.30
2018-12-07T05:41:03.242Z,33.27
2018-12-07T05:41:40.072Z,33.29
2018-12-07T05:42:17.044Z,33.30
2018-12-07T05:42:53.934Z,33.31
2018-12-07T05:43:30.847Z,33.32
2018-12-07T05:44:07.744Z,33.34
2018-12-07T05:44:44.655Z,33.33
2018-12-07T05:45:22.144Z,33.34
2018-12-07T05:45:58.959Z,33.25
2018-12-07T05:46:35.925Z,33.19
2018-12-07T05:47:13.777Z,33.19
2018-12-07T05:47:50.632Z,33.20
2018-12-07T05:48:27.483Z,33.20
2018-12-07T05:49:04.309Z,33.16
2018-12-07T05:49:41.206Z,33.13
2018-12-07T05:50:18.048Z,33.16
2018-12-07T05:50:54.956Z,33.16
2018-12-07T05:51:31.695Z,33.17
2018-12-07T05:52:11.506Z,33.17
2018-12-07T05:52:48.444Z,33.17
2018-12-07T05:53:25.476Z,33.15
2018-12-07T05:54:02.421Z,33.17
2018-12-07T05:54:40.221Z,33.20
2018-12-07T05:55:17.145Z,33.19
2018-12-07T05:55:53.929Z,33.13
2018-12-07T05:56:30.685Z,33.15
2018-12-07T05:57:07.477Z,33.12
2018-12-07T05:57:44.422Z,33.14
2018-12-07T05:58:21.241Z,33.11
2018-12-07T05:58:58.108Z,33.11
2018-12-07T05:59:34.830Z,33.13
2018-12-07T06:00:12.936Z,33.14
2018-12-07T06:00:49.933Z,33.16
2018-12-07T06:01:26.690Z,33.20
2018-12-07T06:02:03.828Z,33.22
2018-12-07T06:02:41.292Z,33.25
2018-12-07T06:03:18.280Z,33.28
2018-12-07T06:03:55.218Z,33.27
2018-12-07T06:04:32.173Z,33.25
2018-12-07T06:05:10.006Z,33.23
2018-12-07T06:05:46.859Z,33.26
2018-12-07T06:06:23.620Z,33.22
2018-12-07T06:07:00.521Z,33.22
2018-12-07T06:07:37.291Z,33.22
2018-12-07T06:08:14.088Z,33.23
2018-12-07T06:08:50.849Z,33.20
2018-12-07T06:09:27.603Z,33.18
2018-12-07T06:10:04.439Z,33.19
2018-12-07T06:10:41.471Z,33.19
2018-12-07T06:11:23.775Z,33.19
2018-12-07T06:12:00.687Z,33.20
2018-12-07T06:12:37.535Z,33.19
2018-12-07T06:13:14.419Z,33.18
2018-12-07T06:13:51.187Z,33.23
2018-12-07T06:14:28.911Z,33.19
2018-12-07T06:15:06.739Z,33.21
2018-12-07T06:15:44.616Z,33.18
2018-12-07T06:16:21.466Z,33.15
2018-12-07T06:16:59.340Z,33.19
2018-12-07T06:17:37.056Z,33.12
2018-12-07T06:18:13.992Z,33.14
2018-12-07T06:18:50.905Z,33.17
2018-12-07T06:19:27.672Z,33.16
2018-12-07T06:20:04.806Z,33.18
2018-12-07T06:21:51.014Z,33.23
2018-12-07T06:22:27.931Z,33.22
2018-12-07T06:23:04.820Z,33.22
2018-12-07T06:23:41.627Z,33.19
2018-12-07T06:24:19.463Z,33.16
2018-12-07T06:24:56.264Z,33.16
2018-12-07T06:25:33.129Z,33.18
2018-12-07T06:26:10.011Z,33.22
2018-12-07T06:26:46.949Z,33.24
2018-12-07T06:27:23.902Z,33.20
2018-12-07T06:28:00.713Z,33.19
2018-12-07T06:28:37.583Z,33.19
2018-12-07T06:29:14.395Z,33.17
2018-12-07T06:29:51.267Z,33.14
2018-12-07T06:30:28.945Z,33.10
2018-12-07T06:31:05.953Z,33.08
2018-12-07T06:31:42.806Z,33.10
2018-12-07T06:32:19.664Z,33.10
2018-12-07T06:33:00.279Z,33.14
2018-12-07T06:33:37.035Z,33.07
2018-12-07T06:34:13.827Z,33.05
2018-12-07T06:34:50.598Z,33.01
2018-12-07T06:36:35.081Z,33.00
2018-12-07T06:37:11.995Z,32.99
2018-12-07T06:37:48.767Z,32.98
2018-12-07T06:38:25.924Z,32.95
2018-12-07T06:39:02.744Z,32.94
2018-12-07T06:39:39.647Z,32.94
2018-12-07T06:40:16.546Z,32.96
2018-12-07T06:40:53.504Z,32.99
2018-12-07T06:41:30.431Z,33.02
2018-12-07T06:42:07.352Z,32.97
2018-12-07T06:42:44.259Z,32.98
2018-12-07T06:43:21.290Z,33.01
2018-12-07T06:43:59.276Z,33.03
2018-12-07T06:44:37.129Z,33.02
2018-12-07T06:45:14.011Z,33.01
2018-12-07T06:45:50.959Z,33.03
2018-12-07T06:46:27.708Z,33.04
2018-12-07T06:47:04.682Z,33.07
2018-12-07T06:47:41.553Z,33.06
2018-12-07T06:48:18.355Z,33.03
2018-12-07T06:49:13.935Z,33.08
2018-12-07T06:49:50.700Z,33.05
2018-12-07T06:50:27.676Z,33.02
2018-12-07T06:51:04.637Z,33.04
2018-12-07T06:51:55.523Z,33.03
2018-12-07T06:52:32.433Z,32.97
2018-12-07T06:53:09.272Z,32.97
2018-12-07T06:53:46.595Z,32.95
2018-12-07T06:54:23.479Z,32.95
2018-12-07T06:55:00.373Z,32.95
2018-12-07T06:55:37.203Z,32.98
2018-12-07T06:56:14.089Z,33.01
2018-12-07T06:56:51.657Z,33.00
2018-12-07T06:57:28.523Z,33.00
2018-12-07T06:58:06.524Z,33.02
2018-12-07T06:58:44.955Z,33.03
2018-12-07T06:59:21.962Z,33.06
2018-12-07T06:59:58.792Z,33.07
2018-12-07T07:00:36.549Z,33.08
2018-12-07T07:01:13.404Z,33.11
2018-12-07T07:01:50.220Z,33.08
2018-12-07T07:02:28.161Z,33.11
2018-12-07T07:03:06.180Z,33.11
2018-12-07T07:03:43.157Z,33.11
2018-12-07T07:04:20.085Z,33.13
2018-12-07T07:04:56.874Z,33.13
2018-12-07T07:05:33.691Z,33.14
2018-12-07T07:06:10.633Z,33.14
2018-12-07T07:06:47.500Z,33.17
2018-12-07T07:07:24.276Z,33.17
2018-12-07T07:08:01.199Z,33.22
2018-12-07T07:08:39.112Z,33.18
2018-12-07T07:09:16.783Z,33.22
2018-12-07T07:09:53.577Z,33.18
2018-12-07T07:10:30.425Z,33.16
2018-12-07T07:11:07.333Z,33.15
2018-12-07T07:11:44.446Z,33.12
2018-12-07T07:12:21.326Z,33.11
2018-12-07T07:12:58.133Z,33.12
2018-12-07T07:13:35.092Z,33.15
2018-12-07T07:14:12.131Z,33.14
2018-12-07T07:14:48.990Z,33.09
2018-12-07T07:15:25.812Z,32.99
2018-12-07T07:16:02.633Z,32.92
2018-12-07T07:16:39.442Z,32.94
2018-12-07T07:17:16.329Z,32.95
2018-12-07T07:17:53.077Z,32.97
2018-12-07T07:18:29.944Z,32.96
2018-12-07T07:19:06.968Z,32.99
2018-12-07T07:19:45.083Z,32.99
2018-12-07T07:20:21.944Z,32.97
2018-12-07T07:20:58.837Z,32.94
2018-12-07T07:21:36.792Z,32.95
2018-12-07T07:22:13.667Z,32.93
2018-12-07T07:22:50.476Z,32.94
2018-12-07T07:23:27.398Z,32.97
2018-12-07T07:24:05.911Z,32.96
2018-12-07T07:24:42.774Z,32.97
2018-12-07T07:25:20.710Z,32.98
2018-12-07T07:25:57.930Z,32.96
2018-12-07T07:26:35.416Z,32.99
2018-12-07T07:27:12.272Z,33.02
2018-12-07T07:27:49.159Z,32.98
2018-12-07T07:28:26.044Z,32.96
2018-12-07T07:29:02.801Z,32.93
2018-12-07T07:29:40.669Z,32.89
2018-12-07T07:30:19.259Z,32.83
2018-12-07T07:30:56.729Z,32.78
2018-12-07T07:31:33.629Z,32.78
2018-12-07T07:32:11.440Z,32.69
2018-12-07T07:32:50.307Z,32.63
2018-12-07T07:33:27.130Z,32.61
2018-12-07T07:34:04.074Z,32.58
2018-12-07T07:34:40.921Z,32.54
2018-12-07T07:35:17.771Z,32.52
2018-12-07T07:35:54.603Z,32.52
2018-12-07T07:36:32.008Z,32.54
2018-12-07T07:37:08.919Z,32.55
2018-12-07T07:37:45.777Z,32.56
2018-12-07T07:38:23.292Z,32.53
2018-12-07T07:39:00.665Z,32.49
2018-12-07T07:39:37.631Z,32.48
2018-12-07T07:40:14.544Z,32.47
2018-12-07T07:40:52.371Z,32.45
2018-12-07T07:41:29.519Z,32.42
2018-12-07T07:42:07.392Z,32.43
2018-12-07T07:42:44.285Z,32.36
2018-12-07T07:43:21.233Z,32.29
2018-12-07T07:43:58.168Z,32.28
2018-12-07T07:44:35.477Z,32.28
2018-12-07T07:45:12.322Z,32.26
2018-12-07T07:45:49.236Z,32.26
2018-12-07T07:46:26.258Z,32.22
2018-12-07T07:47:09.064Z,32.19
2018-12-07T07:47:46.008Z,32.20
2018-12-07T07:48:22.788Z,32.15
2018-12-07T07:49:00.640Z,32.12
2018-12-07T07:49:37.491Z,32.08
2018-12-07T07:50:14.437Z,32.02
2018-12-07T07:50:51.265Z,32.05
2018-12-07T07:51:29.414Z,32.05
2018-12-07T07:52:06.261Z,32.09
2018-12-07T07:52:43.254Z,32.10
2018-12-07T07:53:20.210Z,32.15
2018-12-07T07:53:57.214Z,32.15
2018-12-07T07:54:34.112Z,32.12
2018-12-07T07:55:10.927Z,32.14
2018-12-07T07:55:47.762Z,32.17
2018-12-07T07:56:24.552Z,32.17
2018-12-07T07:57:01.412Z,32.17
2018-12-07T07:57:38.296Z,32.20
2018-12-07T07:58:16.329Z,32.21
2018-12-07T07:58:53.378Z,32.22
2018-12-07T07:59:30.200Z,32.22
2018-12-07T08:00:07.766Z,32.27
2018-12-07T08:00:44.662Z,32.32
2018-12-07T08:01:21.464Z,32.32
2018-12-07T08:01:58.362Z,32.33
2018-12-07T08:02:35.460Z,32.33
2018-12-07T08:03:12.389Z,32.36